Time;durP1;ratioP1;P1;durP2;ratioP2;P2;SDS_P1;SDS_P2;PMS_P1;PMS_P2;Temp;Humidity;BMP_temperature;BMP_pressure;BME280_temperature;BME280_humidity;BME280_pressure;Samples;Min_cycle;Max_cycle;Signal;HPM_P1;HPM_P2
2022/08/05 00:01:01;;;;;;;7.82;7.53;;;;;;;-143.83;100.00;62900.06;5115013;28;20551;-65
2022/08/05 00:03:26;;;;;;;7.82;7.53;;;;;;;-143.83;100.00;62900.06;5115105;28;20023;-64
2022/08/05 00:05:52;;;;;;;7.65;7.35;;;;;;;-143.83;100.00;62900.06;5129279;27;20050;-64
2022/08/05 00:08:18;;;;;;;7.90;7.60;;;;;;;-143.83;100.00;62900.06;5115482;28;20102;-64
2022/08/05 00:10:44;;;;;;;7.75;7.45;;;;;;;-143.83;100.00;62900.06;5115135;28;20024;-66
2022/08/05 00:13:09;;;;;;;8.00;7.70;;;;;;;-143.83;100.00;62900.06;5115085;28;20026;-66
2022/08/05 00:15:35;;;;;;;7.80;7.50;;;;;;;-143.83;100.00;62900.06;5113517;28;20033;-65
2022/08/05 00:18:00;;;;;;;7.80;7.50;;;;;;;-143.83;100.00;62900.06;5120194;27;20406;-65
2022/08/05 00:20:26;;;;;;;7.75;7.45;;;;;;;-143.83;100.00;62900.06;5104787;28;20015;-65
2022/08/05 00:22:51;;;;;;;8.05;7.72;;;;;;;-143.83;100.00;62900.06;5114938;28;20444;-64
2022/08/05 00:25:18;;;;;;;7.82;7.53;;;;;;;-143.83;100.00;62900.06;5115126;28;20023;-65
2022/08/05 00:27:43;;;;;;;7.78;7.47;;;;;;;-143.83;100.00;62900.06;5114880;28;20502;-65
2022/08/05 00:30:09;;;;;;;7.70;7.40;;;;;;;-143.83;100.00;62900.06;5115000;28;20032;-65
2022/08/05 00:32:35;;;;;;;7.80;7.50;;;;;;;-143.83;100.00;62900.06;5113718;28;20495;-66
2022/08/05 00:35:00;;;;;;;7.70;7.40;;;;;;;-143.83;100.00;62900.06;5116953;27;20027;-65
2022/08/05 00:37:26;;;;;;;7.90;7.60;;;;;;;-143.83;100.00;62900.06;5114834;28;20394;-65
2022/08/05 00:39:52;;;;;;;8.13;7.78;;;;;;;-143.83;100.00;62900.06;5115695;27;20027;-65
2022/08/05 00:42:35;;;;;;;8.20;7.80;;;;;;;-143.83;100.00;62900.06;5115790;27;20055;-65
2022/08/05 00:45:03;;;;;;;8.18;7.82;;;;;;;-143.83;100.00;62900.06;5114279;28;20065;-66
2022/08/05 00:47:28;;;;;;;7.75;7.45;;;;;;;-143.83;100.00;62900.06;5112640;28;20034;-65
2022/08/05 00:49:54;;;;;;;7.80;7.50;;;;;;;-143.83;100.00;62900.06;5114829;28;20032;-65
2022/08/05 00:52:19;;;;;;;8.00;7.70;;;;;;;-143.83;100.00;62900.06;5112384;28;20479;-67
2022/08/05 00:54:45;;;;;;;7.95;7.65;;;;;;;-143.83;100.00;62900.06;5114903;28;20073;-65
2022/08/05 00:57:11;;;;;;;7.97;7.68;;;;;;;-143.83;100.00;62900.06;5114723;28;20027;-66
2022/08/05 00:59:36;;;;;;;7.90;7.60;;;;;;;-143.83;100.00;62900.06;5115082;28;20020;-65
2022/08/05 01:02:02;;;;;;;7.90;7.60;;;;;;;-143.83;100.00;62900.06;5114846;28;20459;-65
2022/08/05 01:04:27;;;;;;;7.70;7.40;;;;;;;-143.83;100.00;62900.06;5113950;28;20063;-65
2022/08/05 01:06:53;;;;;;;7.60;7.30;;;;;;;-143.83;100.00;62900.06;5113505;28;20019;-65
2022/08/05 01:09:18;;;;;;;7.70;7.40;;;;;;;-143.83;100.00;62900.06;5119801;27;20967;-65
2022/08/05 01:11:47;;;;;;;8.00;7.70;;;;;;;-143.83;100.00;62900.06;5114487;27;20107;-65
2022/08/05 01:14:30;;;;;;;8.15;7.75;;;;;;;-143.83;100.00;62900.06;5114174;28;20031;-65
2022/08/05 01:17:05;;;;;;;7.90;7.60;;;;;;;-143.83;100.00;62900.06;5114285;28;20038;-65
2022/08/05 01:19:44;;;;;;;7.60;7.30;;;;;;;-143.83;100.00;62900.06;5098678;28;20024;-65
2022/08/05 01:22:29;;;;;;;7.63;7.32;;;;;;;-143.83;100.00;62900.06;5113670;28;20073;-65
2022/08/05 01:25:12;;;;;;;7.90;7.60;;;;;;;-143.83;100.00;62900.06;5120174;27;20027;-65
2022/08/05 01:27:47;;;;;;;7.55;7.25;;;;;;;-143.83;100.00;62900.06;5114059;28;20502;-66
2022/08/05 01:30:15;;;;;;;7.80;7.50;;;;;;;-143.83;100.00;62900.06;5114000;27;20035;-65
2022/08/05 01:32:43;;;;;;;7.60;7.30;;;;;;;-143.83;100.00;62900.06;5107949;28;20479;-65
2022/08/05 01:35:15;;;;;;;7.65;7.35;;;;;;;-143.83;100.00;62900.06;5108780;28;20027;-65
2022/08/05 01:37:48;;;;;;;7.30;7.00;;;;;;;-143.83;100.00;62900.06;5102981;27;20020;-65
2022/08/05 01:40:16;;;;;;;7.40;7.10;;;;;;;-143.83;100.00;62900.06;5108756;28;20031;-66
2022/08/05 01:42:44;;;;;;;7.53;7.22;;;;;;;-143.83;100.00;62900.06;5113536;28;20023;-66
2022/08/05 01:45:13;;;;;;;7.72;7.43;;;;;;;-143.83;100.00;62900.06;5113470;28;20055;-65
2022/08/05 01:47:40;;;;;;;7.60;7.30;;;;;;;-143.83;100.00;62900.06;5113261;28;20474;-65
2022/08/05 01:50:10;;;;;;;7.90;7.60;;;;;;;-143.83;100.00;62900.06;5112322;28;20024;-65
2022/08/05 01:52:40;;;;;;;7.50;7.20;;;;;;;-143.83;100.00;62900.06;5113522;28;20051;-65
2022/08/05 01:55:10;;;;;;;7.60;7.30;;;;;;;-143.83;100.00;62900.06;5113274;28;20159;-65
2022/08/05 01:57:39;;;;;;;7.57;7.28;;;;;;;-143.83;100.00;62900.06;5112356;28;20720;-65
2022/08/05 02:00:11;;;;;;;8.18;7.80;;;;;;;-143.83;100.00;62900.06;5116057;27;20056;-69
2022/08/05 02:02:40;;;;;;;7.80;7.50;;;;;;;-143.83;100.00;62900.06;5112362;28;20479;-65
2022/08/05 02:05:09;;;;;;;7.50;7.20;;;;;;;-143.83;100.00;62900.06;5113683;28;20143;-66
2022/08/05 02:07:35;;;;;;;7.88;7.57;;;;;;;-143.83;100.00;62900.06;5099471;28;20028;-65
2022/08/05 02:10:03;;;;;;;7.80;7.50;;;;;;;-143.83;100.00;62900.06;5111946;28;20028;-64
2022/08/05 02:12:36;;;;;;;7.93;7.63;;;;;;;-143.83;100.00;62900.06;5111966;28;20019;-65
2022/08/05 02:15:13;;;;;;;7.60;7.30;;;;;;;-143.83;100.00;62900.06;5112820;28;20028;-65
2022/08/05 02:17:50;;;;;;;7.60;7.30;;;;;;;-143.83;100.00;62900.06;5113201;28;20111;-65
2022/08/05 02:20:21;;;;;;;7.90;7.60;;;;;;;-143.83;100.00;62900.06;5112755;28;20103;-65
2022/08/05 02:22:55;;;;;;;7.60;7.30;;;;;;;-143.83;100.00;62900.06;5111393;28;20027;-65
2022/08/05 02:25:43;;;;;;;7.57;7.28;;;;;;;-143.83;100.00;62900.06;5112842;28;20031;-66
2022/08/05 02:28:12;;;;;;;7.50;7.20;;;;;;;-143.83;100.00;62900.06;5112446;28;20118;-65
2022/08/05 02:30:44;;;;;;;7.80;7.50;;;;;;;-143.83;100.00;62900.06;5112201;28;20027;-65
2022/08/05 02:33:14;;;;;;;7.70;7.40;;;;;;;-143.83;100.00;62900.06;5110038;27;20032;-65
2022/08/05 02:35:41;;;;;;;7.53;7.22;;;;;;;-143.83;100.00;62900.06;5105560;28;20028;-66
2022/08/05 02:38:09;;;;;;;7.60;7.30;;;;;;;-143.83;100.00;62900.06;5112953;28;20024;-66
2022/08/05 02:40:36;;;;;;;7.60;7.30;;;;;;;-143.83;100.00;62900.06;5112662;28;20050;-67
2022/08/05 02:43:03;;;;;;;7.80;7.50;;;;;;;-143.83;100.00;62900.06;5111765;28;20054;-66
2022/08/05 02:45:29;;;;;;;8.05;7.75;;;;;;;-143.83;100.00;62900.06;5112298;28;20016;-65
2022/08/05 02:47:56;;;;;;;7.78;7.47;;;;;;;-143.83;100.00;62900.06;5110186;28;20011;-65
2022/08/05 02:50:23;;;;;;;7.88;7.57;;;;;;;-143.83;100.00;62900.06;5112036;28;20020;-66
2022/08/05 02:52:50;;;;;;;7.65;7.35;;;;;;;-143.83;100.00;62900.06;5097286;28;20028;-65
2022/08/05 02:55:16;;;;;;;7.97;7.68;;;;;;;-143.83;100.00;62900.06;5110568;28;20359;-65
2022/08/05 02:57:44;;;;;;;7.82;7.53;;;;;;;-143.83;100.00;62900.06;5112217;28;20023;-65
2022/08/05 03:00:11;;;;;;;7.70;7.40;;;;;;;-143.83;100.00;62900.06;5112207;28;20024;-64
2022/08/05 03:02:39;;;;;;;8.23;7.82;;;;;;;-143.83;100.00;62900.06;5112426;28;20016;-64
2022/08/05 03:05:08;;;;;;;7.70;7.40;;;;;;;-143.83;100.00;62900.06;5111430;28;20471;-65
2022/08/05 03:07:34;;;;;;;7.75;7.45;;;;;;;-143.83;100.00;62900.06;5112299;28;20387;-64
2022/08/05 03:10:00;;;;;;;7.80;7.50;;;;;;;-143.83;100.00;62900.06;5114615;28;20547;-65
2022/08/05 03:12:34;;;;;;;8.15;7.75;;;;;;;-143.83;100.00;62900.06;5118434;28;20051;-65
2022/08/05 03:15:00;;;;;;;7.78;7.47;;;;;;;-143.83;100.00;62900.06;5119528;27;20110;-65
2022/08/05 03:17:26;;;;;;;8.10;7.75;;;;;;;-143.83;100.00;62900.06;5119227;27;20043;-66
2022/08/05 03:19:51;;;;;;;7.93;7.60;;;;;;;-143.83;100.00;62900.06;5118599;28;20027;-64
2022/08/05 03:22:17;;;;;;;8.00;7.70;;;;;;;-143.83;100.00;62900.06;5118270;27;20024;-66
2022/08/05 03:24:44;;;;;;;7.65;7.35;;;;;;;-143.83;100.00;62900.06;5115929;28;20016;-64
2022/08/05 03:27:10;;;;;;;7.60;7.30;;;;;;;-143.83;100.00;62900.06;5109080;28;20012;-65
2022/08/05 03:29:35;;;;;;;7.70;7.40;;;;;;;-143.83;100.00;62900.06;5115890;27;20023;-67
2022/08/05 03:32:02;;;;;;;8.00;7.70;;;;;;;-143.83;100.00;62900.06;5098468;28;20020;-66
2022/08/05 03:34:29;;;;;;;8.00;7.70;;;;;;;-143.83;100.00;62900.06;5116699;28;20023;-66
2022/08/05 03:36:54;;;;;;;8.00;7.70;;;;;;;-143.83;100.00;62900.06;5118576;28;20029;-67
2022/08/05 03:39:20;;;;;;;7.70;7.40;;;;;;;-143.83;100.00;62900.06;5117546;28;20023;-65
2022/08/05 03:41:45;;;;;;;7.70;7.40;;;;;;;-143.83;100.00;62900.06;5122124;27;20034;-65
2022/08/05 03:44:11;;;;;;;7.75;7.45;;;;;;;-143.83;100.00;62900.06;5105373;27;20448;-65
2022/08/05 03:46:36;;;;;;;8.05;7.75;;;;;;;-143.83;100.00;62900.06;5117466;28;20423;-66
2022/08/05 03:49:02;;;;;;;7.72;7.43;;;;;;;-143.83;100.00;62900.06;5111454;28;20027;-65
2022/08/05 03:51:34;;;;;;;7.95;7.65;;;;;;;-143.83;100.00;62900.06;5117930;27;20340;-66
2022/08/05 03:54:08;;;;;;;8.18;7.88;;;;;;;-143.83;100.00;62900.06;5118528;27;20075;-65
2022/08/05 03:56:46;;;;;;;7.75;7.45;;;;;;;-143.83;100.00;62900.06;5117218;28;20034;-66
2022/08/05 03:59:41;;;;;;;8.05;7.75;;;;;;;-143.83;100.00;62900.06;5118447;27;20106;-66
2022/08/05 04:02:07;;;;;;;7.80;7.50;;;;;;;-143.83;100.00;62900.06;5104289;28;20540;-65
2022/08/05 04:04:34;;;;;;;7.60;7.30;;;;;;;-143.83;100.00;62900.06;5110512;27;20073;-66
2022/08/05 04:07:00;;;;;;;7.80;7.50;;;;;;;-143.83;100.00;62900.06;5127724;27;20046;-67
2022/08/05 04:09:28;;;;;;;8.10;7.80;;;;;;;-143.83;100.00;62900.06;5107693;27;20032;-65
2022/08/05 04:11:54;;;;;;;8.10;7.80;;;;;;;-143.83;100.00;62900.06;5107360;28;20035;-65
2022/08/05 04:14:20;;;;;;;7.82;7.53;;;;;;;-143.83;100.00;62900.06;5106056;28;20107;-65
2022/08/05 04:16:47;;;;;;;7.95;7.65;;;;;;;-143.83;100.00;62900.06;5105000;28;20534;-65
2022/08/05 04:19:13;;;;;;;7.63;7.32;;;;;;;-143.83;100.00;62900.06;5118061;27;20027;-66
2022/08/05 04:21:39;;;;;;;8.00;7.70;;;;;;;-143.83;100.00;62900.06;5108448;28;20442;-65
2022/08/05 04:24:05;;;;;;;8.02;7.72;;;;;;;-143.83;100.00;62900.06;5112407;28;20019;-64
2022/08/05 04:26:30;;;;;;;7.88;7.57;;;;;;;-143.83;100.00;62900.06;5117309;27;20394;-65
2022/08/05 04:28:56;;;;;;;7.88;7.57;;;;;;;-143.83;100.00;62900.06;5109826;28;20494;-65
2022/08/05 04:31:21;;;;;;;8.15;7.85;;;;;;;-143.83;100.00;62900.06;5111136;27;20027;-65
2022/08/05 04:33:47;;;;;;;7.90;7.60;;;;;;;-143.83;100.00;62900.06;5117628;27;20072;-65
2022/08/05 04:36:14;;;;;;;7.95;7.65;;;;;;;-143.83;100.00;62900.06;5113800;28;20036;-65
2022/08/05 04:38:42;;;;;;;8.20;7.90;;;;;;;-143.83;100.00;62900.06;5104834;28;20066;-65
2022/08/05 04:41:07;;;;;;;8.00;7.70;;;;;;;-143.83;100.00;62900.06;5107985;27;20102;-65
2022/08/05 04:43:33;;;;;;;7.97;7.68;;;;;;;-143.83;100.00;62900.06;5113690;28;20127;-65
2022/08/05 04:45:58;;;;;;;7.80;7.50;;;;;;;-143.83;100.00;62900.06;5113631;28;20023;-65
2022/08/05 04:48:24;;;;;;;8.10;7.80;;;;;;;-143.83;100.00;62900.06;5105741;27;20391;-65
2022/08/05 04:50:49;;;;;;;8.10;7.80;;;;;;;-143.83;100.00;62900.06;5115103;27;20023;-65
2022/08/05 04:53:16;;;;;;;7.80;7.50;;;;;;;-143.83;100.00;62900.06;5112307;27;20514;-65
2022/08/05 04:55:43;;;;;;;7.70;7.40;;;;;;;-143.83;100.00;62900.06;5104105;28;20125;-65
2022/08/05 04:58:11;;;;;;;7.68;7.38;;;;;;;-143.83;100.00;62900.06;5111310;28;20019;-65
2022/08/05 05:00:38;;;;;;;7.93;7.63;;;;;;;-143.83;100.00;62900.06;5110803;28;20141;-65
2022/08/05 05:03:05;;;;;;;7.70;7.40;;;;;;;-143.83;100.00;62900.06;5112765;28;20020;-65
2022/08/05 05:05:31;;;;;;;7.90;7.60;;;;;;;-143.83;100.00;62900.06;5115959;27;20106;-65
2022/08/05 05:08:05;;;;;;;7.97;7.68;;;;;;;-143.83;100.00;62900.06;5114447;27;20435;-65
2022/08/05 05:10:37;;;;;;;8.00;7.70;;;;;;;-143.83;100.00;62900.06;5111695;28;20031;-66
2022/08/05 05:13:02;;;;;;;7.90;7.60;;;;;;;-143.83;100.00;62900.06;5112855;28;20509;-66
2022/08/05 05:15:28;;;;;;;8.02;7.72;;;;;;;-143.83;100.00;62900.06;5113789;28;20028;-66
2022/08/05 05:17:53;;;;;;;8.10;7.80;;;;;;;-143.83;100.00;62900.06;5113808;28;20024;-65
2022/08/05 05:20:19;;;;;;;8.02;7.72;;;;;;;-143.83;100.00;62900.06;5112851;28;20024;-66
2022/08/05 05:22:44;;;;;;;8.10;7.80;;;;;;;-143.83;100.00;62900.06;5109719;27;20027;-66
2022/08/05 05:25:11;;;;;;;7.90;7.60;;;;;;;-143.83;100.00;62900.06;5114831;27;20394;-66
2022/08/05 05:27:37;;;;;;;7.80;7.50;;;;;;;-143.83;100.00;62900.06;5113501;28;20024;-66
2022/08/05 05:30:03;;;;;;;7.70;7.40;;;;;;;-143.83;100.00;62900.06;5111615;28;20023;-66
2022/08/05 05:32:29;;;;;;;7.68;7.38;;;;;;;-143.83;100.00;62900.06;5113118;28;20032;-66
2022/08/05 05:34:54;;;;;;;7.82;7.53;;;;;;;-143.83;100.00;62900.06;5118270;27;20501;-66
2022/08/05 05:37:20;;;;;;;7.60;7.30;;;;;;;-143.83;100.00;62900.06;5120988;27;20063;-66
2022/08/05 05:39:45;;;;;;;7.63;7.32;;;;;;;-143.83;100.00;62900.06;5112130;28;20042;-66
2022/08/05 05:42:11;;;;;;;7.68;7.38;;;;;;;-143.83;100.00;62900.06;5113587;28;20023;-66
2022/08/05 05:44:36;;;;;;;8.00;7.70;;;;;;;-143.83;100.00;62900.06;5113433;28;20047;-65
2022/08/05 05:47:02;;;;;;;7.78;7.47;;;;;;;-143.83;100.00;62900.06;5112228;28;20055;-65
2022/08/05 05:49:27;;;;;;;7.97;7.68;;;;;;;-143.83;100.00;62900.06;5108546;28;20028;-67
2022/08/05 05:51:53;;;;;;;7.68;7.38;;;;;;;-143.83;100.00;62900.06;5113151;27;20023;-66
2022/08/05 05:54:19;;;;;;;7.68;7.38;;;;;;;-143.83;100.00;62900.06;5105963;28;20035;-66
2022/08/05 05:56:45;;;;;;;7.70;7.40;;;;;;;-143.83;100.00;62900.06;5112845;28;20068;-66
2022/08/05 05:59:10;;;;;;;7.70;7.40;;;;;;;-143.83;100.00;62900.06;5112882;28;20062;-66
2022/08/05 06:01:39;;;;;;;7.70;7.40;;;;;;;-143.83;100.00;62900.06;5113193;28;20035;-67
2022/08/05 06:04:06;;;;;;;7.75;7.45;;;;;;;-143.83;100.00;62900.06;5112533;28;20383;-65
2022/08/05 06:06:32;;;;;;;7.80;7.50;;;;;;;-143.83;100.00;62900.06;5108389;28;20019;-66
2022/08/05 06:08:57;;;;;;;7.93;7.63;;;;;;;-143.83;100.00;62900.06;5103485;28;20659;-66
2022/08/05 06:11:23;;;;;;;7.53;7.22;;;;;;;-143.83;100.00;62900.06;5097164;28;20032;-67
2022/08/05 06:13:48;;;;;;;7.53;7.22;;;;;;;-143.83;100.00;62900.06;5101425;28;20024;-66
2022/08/05 06:16:14;;;;;;;7.60;7.30;;;;;;;-143.83;100.00;62900.06;5108941;28;20425;-66
2022/08/05 06:18:39;;;;;;;7.63;7.32;;;;;;;-143.83;100.00;62900.06;5103527;27;20106;-66
2022/08/05 06:21:05;;;;;;;7.53;7.22;;;;;;;-143.83;100.00;62900.06;5104511;28;20027;-65
2022/08/05 06:23:30;;;;;;;7.90;7.60;;;;;;;-143.83;100.00;62900.06;5103946;28;20024;-66
2022/08/05 06:25:56;;;;;;;8.10;7.80;;;;;;;-143.83;100.00;62900.06;5106742;28;20482;-66
2022/08/05 06:28:21;;;;;;;8.18;7.88;;;;;;;-143.83;100.00;62900.06;5103523;28;20105;-67
2022/08/05 06:30:47;;;;;;;7.90;7.60;;;;;;;-143.83;100.00;62900.06;5110381;27;20042;-67
2022/08/05 06:33:13;;;;;;;7.75;7.45;;;;;;;-143.83;100.00;62900.06;5100253;28;20035;-66
2022/08/05 06:35:38;;;;;;;7.90;7.60;;;;;;;-143.83;100.00;62900.06;5107467;28;20505;-66
2022/08/05 06:38:04;;;;;;;8.00;7.70;;;;;;;-143.83;100.00;62900.06;5100699;28;20019;-67
2022/08/05 06:40:29;;;;;;;8.02;7.72;;;;;;;-143.83;100.00;62900.06;5104143;28;20035;-66
2022/08/05 06:42:56;;;;;;;7.95;7.65;;;;;;;-143.83;100.00;62900.06;5108174;28;20341;-66
2022/08/05 06:45:21;;;;;;;7.95;7.65;;;;;;;-143.83;100.00;62900.06;5105934;28;20027;-66
2022/08/05 06:47:47;;;;;;;7.82;7.53;;;;;;;-143.83;100.00;62900.06;5101448;28;20024;-66
2022/08/05 06:50:13;;;;;;;7.65;7.35;;;;;;;-143.83;100.00;62900.06;5102715;27;20027;-66
2022/08/05 06:52:38;;;;;;;7.70;7.40;;;;;;;-143.83;100.00;62900.06;5096569;28;20024;-66
2022/08/05 06:55:05;;;;;;;7.80;7.50;;;;;;;-143.83;100.00;62900.06;5107059;28;20066;-66
2022/08/05 06:57:30;;;;;;;7.78;7.47;;;;;;;-143.83;100.00;62900.06;5099477;28;20023;-66
2022/08/05 06:59:56;;;;;;;7.72;7.43;;;;;;;-143.83;100.00;62900.06;5106218;28;20020;-67
2022/08/05 07:02:21;;;;;;;8.45;8.05;;;;;;;-143.83;100.00;62900.06;5100410;28;20028;-67
2022/08/05 07:04:47;;;;;;;7.70;7.40;;;;;;;-143.83;100.00;62900.06;5099536;28;20028;-67
2022/08/05 07:07:12;;;;;;;8.00;7.70;;;;;;;-143.83;100.00;62900.06;5115887;28;20027;-67
2022/08/05 07:09:38;;;;;;;8.20;7.90;;;;;;;-143.83;100.00;62900.06;5098363;28;20475;-67
2022/08/05 07:12:03;;;;;;;7.97;7.68;;;;;;;-143.83;100.00;62900.06;5099058;28;20035;-67
2022/08/05 07:17:13;;;;;;;8.20;7.90;;;;;;;-143.83;100.00;62900.06;5091543;28;20043;-67
2022/08/05 07:19:39;;;;;;;8.00;7.70;;;;;;;-143.83;100.00;62900.06;5105992;28;20171;-68
2022/08/05 07:22:04;;;;;;;7.70;7.40;;;;;;;-143.83;100.00;62900.06;5110852;28;20035;-67
2022/08/05 07:24:30;;;;;;;8.00;7.70;;;;;;;-143.83;100.00;62900.06;5108300;28;20019;-67
2022/08/05 07:26:55;;;;;;;8.00;7.70;;;;;;;-143.83;100.00;62900.06;5108303;28;20345;-67
2022/08/05 07:29:21;;;;;;;7.78;7.47;;;;;;;-143.83;100.00;62900.06;5107152;28;20036;-65
2022/08/05 07:31:46;;;;;;;7.80;7.50;;;;;;;-143.83;100.00;62900.06;5108137;28;20012;-66
2022/08/05 07:34:12;;;;;;;7.90;7.60;;;;;;;-143.83;100.00;62900.06;5106169;28;20545;-66
2022/08/05 07:36:38;;;;;;;7.65;7.35;;;;;;;-143.83;100.00;62900.06;5106471;28;20036;-66
2022/08/05 07:39:06;;;;;;;7.90;7.60;;;;;;;-143.83;100.00;62900.06;5107767;28;20026;-68
2022/08/05 07:41:32;;;;;;;7.93;7.63;;;;;;;-143.83;100.00;62900.06;5096261;28;20028;-66
2022/08/05 07:43:59;;;;;;;7.85;7.55;;;;;;;-143.83;100.00;62900.06;5104569;28;20039;-66
2022/08/05 07:46:26;;;;;;;7.85;7.55;;;;;;;-143.83;100.00;62900.06;5101579;28;20028;-66
2022/08/05 07:48:53;;;;;;;7.88;7.57;;;;;;;-143.83;100.00;62900.06;5101081;28;20038;-67
2022/08/05 07:51:19;;;;;;;7.85;7.55;;;;;;;-143.83;100.00;62900.06;5101076;28;20032;-65
2022/08/05 07:53:44;;;;;;;8.15;7.85;;;;;;;-143.83;100.00;62900.06;5107493;28;20069;-66
2022/08/05 07:56:10;;;;;;;7.80;7.50;;;;;;;-143.83;100.00;62900.06;5103573;28;20510;-66
2022/08/05 07:58:35;;;;;;;8.02;7.72;;;;;;;-143.83;100.00;62900.06;5105795;28;20038;-65
2022/08/05 08:01:01;;;;;;;8.00;7.70;;;;;;;-143.83;100.00;62900.06;5097935;28;20024;-67
2022/08/05 08:03:27;;;;;;;8.05;7.75;;;;;;;-143.83;100.00;62900.06;5110008;28;20134;-68
2022/08/05 08:05:52;;;;;;;8.00;7.70;;;;;;;-143.83;100.00;62900.06;5111772;28;20095;-66
2022/08/05 08:08:18;;;;;;;8.00;7.70;;;;;;;-143.83;100.00;62900.06;5107791;28;20032;-65
2022/08/05 08:10:44;;;;;;;8.75;8.35;;;;;;;-143.83;100.00;62900.06;5109268;27;20024;-65
2022/08/05 08:13:10;;;;;;;8.57;8.18;;;;;;;-143.83;100.00;62900.06;5110031;27;20019;-66
2022/08/05 08:15:35;;;;;;;8.40;8.00;;;;;;;-143.83;100.00;62900.06;5107234;28;20024;-66
2022/08/05 08:18:01;;;;;;;8.48;8.07;;;;;;;-143.83;100.00;62900.06;5103943;28;20430;-67
2022/08/05 08:20:27;;;;;;;8.60;8.20;;;;;;;-143.83;100.00;62900.06;5109309;28;20028;-66
2022/08/05 08:22:55;;;;;;;8.52;8.13;;;;;;;-143.83;100.00;62900.06;5107660;27;20039;-65
2022/08/05 08:25:21;;;;;;;8.80;8.40;;;;;;;-143.83;100.00;62900.06;5100764;27;20036;-66
2022/08/05 08:27:47;;;;;;;8.70;8.30;;;;;;;-143.83;100.00;62900.06;5104633;28;20031;-67
2022/08/05 08:30:13;;;;;;;8.98;8.57;;;;;;;-143.83;100.00;62900.06;5106516;28;20382;-67
2022/08/05 08:32:39;;;;;;;8.73;8.32;;;;;;;-143.83;100.00;62900.06;5102125;28;20076;-66
2022/08/05 08:35:06;;;;;;;8.82;8.43;;;;;;;-143.83;100.00;62900.06;5110945;28;20424;-66
2022/08/05 08:37:32;;;;;;;8.50;8.10;;;;;;;-143.83;100.00;62900.06;5102017;27;20078;-65
2022/08/05 08:39:58;;;;;;;8.77;8.38;;;;;;;-143.83;100.00;62900.06;5109806;28;20372;-66
2022/08/05 08:42:24;;;;;;;8.25;7.95;;;;;;;-143.83;100.00;62900.06;5102856;28;20038;-66
2022/08/05 08:44:53;;;;;;;9.00;8.60;;;;;;;-143.83;100.00;62900.06;5082689;28;20559;-66
2022/08/05 08:47:25;;;;;;;8.40;8.00;;;;;;;-143.83;100.00;62900.06;5079870;28;20024;-66
2022/08/05 08:49:52;;;;;;;8.50;8.10;;;;;;;-143.83;100.00;62900.06;5085150;28;20060;-66
2022/08/05 08:52:29;;;;;;;8.70;8.30;;;;;;;-143.83;100.00;62900.06;5086028;28;20035;-67
2022/08/05 08:54:54;;;;;;;8.18;7.88;;;;;;;-143.83;100.00;62900.06;5086680;28;20488;-65
2022/08/05 08:57:21;;;;;;;8.23;7.93;;;;;;;-143.83;100.00;62900.06;5079481;28;20082;-66
2022/08/05 08:59:47;;;;;;;8.57;8.18;;;;;;;-143.83;100.00;62900.06;5084122;28;20023;-66
2022/08/05 09:02:13;;;;;;;7.93;7.63;;;;;;;-143.83;100.00;62900.06;5083785;28;20080;-66
2022/08/05 09:04:39;;;;;;;8.05;7.75;;;;;;;-143.83;100.00;62900.06;5088831;28;20475;-66
2022/08/05 09:07:07;;;;;;;8.50;8.10;;;;;;;-143.83;100.00;62900.06;5087298;28;20085;-66
2022/08/05 09:09:35;;;;;;;7.93;7.63;;;;;;;-143.83;100.00;62900.06;5087292;28;20023;-67
2022/08/05 09:12:04;;;;;;;7.97;7.68;;;;;;;-143.83;100.00;62900.06;5089595;28;20666;-65
2022/08/05 09:14:31;;;;;;;8.40;8.00;;;;;;;-143.83;100.00;62900.06;5081238;28;20051;-65
2022/08/05 09:17:01;;;;;;;8.63;8.23;;;;;;;-143.83;100.00;62900.06;5090745;28;20543;-67
2022/08/05 09:19:26;;;;;;;8.43;8.02;;;;;;;-143.83;100.00;62900.06;5086966;28;20032;-67
2022/08/05 09:21:52;;;;;;;8.43;8.02;;;;;;;-143.83;100.00;62900.06;5076710;28;20024;-67
2022/08/05 09:24:18;;;;;;;8.45;8.05;;;;;;;-143.83;100.00;62900.06;5089552;28;20035;-66
2022/08/05 09:26:50;;;;;;;8.10;7.80;;;;;;;-143.83;100.00;62900.06;5082900;28;20027;-66
2022/08/05 09:29:16;;;;;;;8.35;7.97;;;;;;;-143.83;100.00;62900.06;5088811;28;20510;-66
2022/08/05 09:31:43;;;;;;;8.60;8.20;;;;;;;-143.83;100.00;62900.06;5088655;28;20105;-67
2022/08/05 09:34:09;;;;;;;8.27;7.93;;;;;;;-143.83;100.00;62900.06;5088791;28;20032;-67
2022/08/05 09:36:42;;;;;;;8.48;8.07;;;;;;;-143.83;100.00;62900.06;5087898;28;20028;-66
2022/08/05 09:39:10;;;;;;;8.40;8.00;;;;;;;-143.83;100.00;62900.06;5079674;28;20070;-67
2022/08/05 09:42:03;;;;;;;8.68;8.27;;;;;;;-143.83;100.00;62900.06;5088945;28;20028;-66
2022/08/05 09:44:33;;;;;;;8.88;8.48;;;;;;;-143.83;100.00;62900.06;5101692;28;20131;-67
2022/08/05 09:47:12;;;;;;;8.73;8.32;;;;;;;-143.83;100.00;62900.06;5099874;28;20053;-66
2022/08/05 09:49:44;;;;;;;8.63;8.23;;;;;;;-143.83;100.00;62900.06;5100657;28;20035;-67
2022/08/05 09:52:31;;;;;;;8.40;8.00;;;;;;;-143.83;100.00;62900.06;5106028;28;20136;-67
2022/08/05 09:55:06;;;;;;;8.10;7.80;;;;;;;-143.83;100.00;62900.06;5109363;28;20116;-67
2022/08/05 09:57:39;;;;;;;8.32;7.93;;;;;;;-143.83;100.00;62900.06;5095257;28;20199;-68
2022/08/05 10:00:09;;;;;;;8.50;8.10;;;;;;;-143.83;100.00;62900.06;5100951;28;20080;-68
2022/08/05 10:02:40;;;;;;;8.32;7.95;;;;;;;-143.83;100.00;62900.06;5103520;28;20038;-67
2022/08/05 10:05:10;;;;;;;7.75;7.45;;;;;;;-143.83;100.00;62900.06;5108886;28;20038;-66
2022/08/05 10:07:58;;;;;;;7.85;7.55;;;;;;;-143.83;100.00;62900.06;5108604;28;20024;-66
2022/08/05 10:10:45;;;;;;;7.90;7.60;;;;;;;-143.83;100.00;62900.06;5108446;28;20490;-66
2022/08/05 10:13:11;;;;;;;8.00;7.70;;;;;;;-143.83;100.00;62900.06;5109543;27;20115;-65
2022/08/05 10:15:40;;;;;;;8.00;7.70;;;;;;;-143.83;100.00;62900.06;5105415;28;20602;-66
2022/08/05 10:18:14;;;;;;;8.23;7.93;;;;;;;-143.83;100.00;62900.06;5110101;28;20372;-66
2022/08/05 10:20:41;;;;;;;;;;;;;;;-143.83;100.00;62900.06;5110178;28;20023;-67
2022/08/05 10:23:10;;;;;;;7.97;7.68;;;;;;;-143.83;100.00;62900.06;5111573;28;19916;-67
2022/08/05 10:25:35;;;;;;;7.82;7.53;;;;;;;-143.83;100.00;62900.06;5106953;28;20028;-66
2022/08/05 10:28:01;;;;;;;7.68;7.38;;;;;;;-143.83;100.00;62900.06;5111480;28;20439;-67
2022/08/05 10:30:27;;;;;;;7.75;7.45;;;;;;;-143.83;100.00;62900.06;5111428;28;20482;-67
2022/08/05 10:32:56;;;;;;;7.47;7.18;;;;;;;-143.83;100.00;62900.06;5110985;28;20386;-66
2022/08/05 10:35:21;;;;;;;7.70;7.40;;;;;;;-143.83;100.00;62900.06;5111190;27;20023;-66
2022/08/05 10:37:47;;;;;;;7.68;7.38;;;;;;;-143.83;100.00;62900.06;5111060;28;20073;-66
2022/08/05 10:40:48;;;;;;;7.90;7.60;;;;;;;-143.83;100.00;62900.06;5110288;28;20035;-66
2022/08/05 10:43:22;;;;;;;8.88;8.48;;;;;;;-143.83;100.00;62900.06;5098158;28;20118;-68
2022/08/05 10:45:59;;;;;;;8.43;8.02;;;;;;;-143.83;100.00;62900.06;5095649;28;20058;-66
2022/08/05 10:48:29;;;;;;;8.38;7.97;;;;;;;-143.83;100.00;62900.06;5100525;28;20034;-67
2022/08/05 10:51:04;;;;;;;8.40;8.00;;;;;;;-143.83;100.00;62900.06;5102287;28;20038;-68
2022/08/05 10:53:49;;;;;;;8.10;7.80;;;;;;;-143.83;100.00;62900.06;5088950;28;20015;-67
2022/08/05 10:56:17;;;;;;;8.15;7.85;;;;;;;-143.83;100.00;62900.06;5095646;28;20028;-67
2022/08/05 10:58:51;;;;;;;8.60;8.20;;;;;;;-143.83;100.00;62900.06;5097354;28;20028;-67
2022/08/05 11:01:17;;;;;;;8.10;7.80;;;;;;;-143.83;100.00;62900.06;5104092;28;20106;-67
2022/08/05 11:04:22;;;;;;;7.82;7.53;;;;;;;-143.83;100.00;62900.06;5112043;27;20541;-68
2022/08/05 11:06:56;;;;;;;7.90;7.60;;;;;;;-143.83;100.00;62900.06;5024533;28;20041;-67
2022/08/05 11:09:24;;;;;;;8.25;7.93;;;;;;;-143.83;100.00;62900.06;5097827;28;20077;-66
2022/08/05 11:11:52;;;;;;;8.10;7.80;;;;;;;-143.83;100.00;62900.06;5099051;28;20024;-66
2022/08/05 11:14:27;;;;;;;8.23;7.93;;;;;;;-143.83;100.00;62900.06;5102988;28;20026;-67
2022/08/05 11:17:33;;;;;;;8.07;7.78;;;;;;;-143.83;100.00;62900.06;5098021;28;20032;-69